Time;durP1;ratioP1;P1;durP2;ratioP2;P2;SDS_P1;SDS_P2;PMS_P1;PMS_P2;Temp;Humidity;BMP_temperature;BMP_pressure;BME280_temperature;BME280_humidity;BME280_pressure;Samples;Min_cycle;Max_cycle;Signal;HPM_P1;HPM_P2
2022/03/03 00:00:35;;;;;;;3.40;2.43;;;13.30;50.40;;;;;;5097551;28;20173;-79
2022/03/03 00:03:02;;;;;;;3.10;2.80;;;13.30;50.40;;;;;;5096804;28;20800;-79
2022/03/03 00:05:35;;;;;;;4.10;2.60;;;13.30;50.40;;;;;;5098275;28;20695;-79
2022/03/03 00:08:01;;;;;;;3.53;2.73;;;13.30;50.50;;;;;;5097899;28;20167;-79
2022/03/03 00:10:35;;;;;;;2.90;2.60;;;13.30;50.50;;;;;;5097929;28;20170;-79
2022/03/03 00:13:00;;;;;;;3.77;2.80;;;13.30;50.50;;;;;;5098401;28;20386;-79
2022/03/03 00:15:36;;;;;;;2.53;2.33;;;13.30;50.50;;;;;;5098278;28;20556;-79
2022/03/03 00:18:02;;;;;;;2.93;2.63;;;13.20;50.50;;;;;;5098796;28;20217;-78
2022/03/03 00:20:28;;;;;;;4.43;2.67;;;13.30;50.50;;;;;;5097597;28;20176;-79
2022/03/03 00:22:55;;;;;;;2.60;2.10;;;13.20;50.50;;;;;;5097035;28;20572;-79
2022/03/03 00:25:23;;;;;;;2.87;2.47;;;13.20;50.50;;;;;;5096822;28;20254;-79
2022/03/03 00:27:49;;;;;;;2.80;2.50;;;13.20;50.60;;;;;;5097935;28;20203;-79
2022/03/03 00:30:15;;;;;;;3.03;2.40;;;13.20;50.60;;;;;;5097838;28;20174;-79
2022/03/03 00:32:41;;;;;;;2.60;2.40;;;13.20;50.60;;;;;;5097650;28;20173;-78
2022/03/03 00:35:39;;;;;;;2.90;2.60;;;13.20;50.60;;;;;;5097645;28;20190;-79
2022/03/03 00:38:04;;;;;;;2.53;2.30;;;13.20;50.70;;;;;;5097730;28;20174;-78
2022/03/03 00:40:30;;;;;;;2.83;2.47;;;13.20;50.70;;;;;;5098779;28;20446;-79
2022/03/03 00:42:56;;;;;;;3.63;2.60;;;13.20;50.70;;;;;;5101067;28;20209;-79
2022/03/03 00:45:24;;;;;;;3.90;2.60;;;13.20;50.70;;;;;;5100890;28;20171;-79
2022/03/03 00:47:50;;;;;;;3.20;2.60;;;13.20;50.70;;;;;;5101175;28;20554;-79
2022/03/03 00:50:16;;;;;;;2.53;2.20;;;13.20;50.70;;;;;;5101422;28;20175;-79
2022/03/03 00:52:41;;;;;;;2.80;2.47;;;13.20;50.70;;;;;;5100774;28;20619;-79
2022/03/03 00:55:09;;;;;;;3.63;2.87;;;13.10;50.70;;;;;;5101660;28;20178;-79
2022/03/03 00:57:34;;;;;;;3.00;2.70;;;13.10;50.70;;;;;;5101939;28;20221;-78
2022/03/03 01:00:01;;;;;;;2.83;2.50;;;13.10;50.70;;;;;;5101126;28;20511;-79
2022/03/03 01:02:27;;;;;;;2.93;2.40;;;13.10;50.70;;;;;;5100413;28;20201;-79
2022/03/03 01:04:55;;;;;;;2.67;2.47;;;13.10;50.80;;;;;;5100410;28;20178;-79
2022/03/03 01:07:21;;;;;;;2.40;2.20;;;13.10;50.80;;;;;;5100236;28;20174;-79
2022/03/03 01:09:47;;;;;;;3.57;2.63;;;13.10;50.80;;;;;;5095102;28;20249;-79
2022/03/03 01:12:12;;;;;;;2.67;2.20;;;13.10;50.80;;;;;;5079865;28;20537;-79
2022/03/03 01:14:43;;;;;;;2.30;2.10;;;13.10;50.70;;;;;;5080679;28;20183;-79
2022/03/03 01:17:09;;;;;;;3.40;2.30;;;13.10;50.80;;;;;;5079954;28;20178;-79
2022/03/03 01:19:34;;;;;;;3.10;2.50;;;13.10;50.80;;;;;;5090446;28;20292;-79
2022/03/03 01:22:00;;;;;;;3.90;2.60;;;13.10;50.80;;;;;;5089750;28;20612;-79
2022/03/03 01:24:28;;;;;;;2.57;2.37;;;13.00;50.80;;;;;;5080451;28;20160;-79
2022/03/03 01:26:54;;;;;;;3.13;2.70;;;13.00;50.80;;;;;;5083418;28;20175;-79
2022/03/03 01:29:19;;;;;;;2.60;2.30;;;13.00;50.80;;;;;;5088847;28;20203;-79
2022/03/03 01:31:45;;;;;;;3.17;2.60;;;13.00;50.90;;;;;;5079430;28;20197;-79
2022/03/03 01:34:21;;;;;;;3.47;2.43;;;13.00;50.90;;;;;;5080697;28;20179;-79
2022/03/03 01:36:47;;;;;;;2.60;2.40;;;13.00;50.90;;;;;;5091213;28;20200;-79
2022/03/03 01:39:12;;;;;;;2.67;2.30;;;13.00;50.90;;;;;;5091779;28;20481;-78
2022/03/03 01:41:41;;;;;;;2.43;2.17;;;13.00;50.90;;;;;;5089994;28;20213;-79
2022/03/03 01:44:08;;;;;;;3.10;2.13;;;13.00;50.90;;;;;;5079789;28;20170;-78
2022/03/03 01:46:34;;;;;;;3.03;2.43;;;13.00;50.90;;;;;;5090706;28;20265;-79
2022/03/03 01:49:00;;;;;;;3.40;2.63;;;13.00;50.90;;;;;;5100399;28;20323;-78
2022/03/03 01:51:36;;;;;;;2.70;2.37;;;13.00;50.90;;;;;;5092559;28;20185;-79
2022/03/03 01:54:02;;;;;;;2.67;2.20;;;13.00;51.00;;;;;;5099766;28;20188;-79
2022/03/03 01:56:27;;;;;;;2.70;2.40;;;13.00;51.00;;;;;;5100020;28;20646;-79
2022/03/03 01:58:53;;;;;;;3.63;2.50;;;12.90;50.90;;;;;;5042592;28;20248;-78
2022/03/03 02:01:19;;;;;;;3.17;2.33;;;12.90;50.90;;;;;;5090130;28;20205;-79
2022/03/03 02:03:44;;;;;;;2.53;2.20;;;12.90;50.90;;;;;;5100315;28;20186;-79
2022/03/03 02:06:10;;;;;;;2.77;2.47;;;12.90;50.90;;;;;;5093057;28;20186;-79
2022/03/03 02:08:43;;;;;;;2.63;2.30;;;12.90;50.90;;;;;;5083725;28;20205;-77
2022/03/03 02:11:10;;;;;;;3.43;2.37;;;12.90;51.00;;;;;;5083120;28;20190;-79
2022/03/03 02:13:36;;;;;;;2.90;2.43;;;12.90;51.40;;;;;;5085976;28;20174;-79
2022/03/03 02:16:02;;;;;;;2.40;2.20;;;12.90;51.00;;;;;;5100558;28;20165;-79
2022/03/03 02:18:29;;;;;;;2.60;2.40;;;12.90;51.00;;;;;;5090034;28;20182;-79
2022/03/03 02:20:54;;;;;;;3.17;2.70;;;12.80;51.00;;;;;;5089020;28;20175;-79
2022/03/03 02:23:20;;;;;;;3.07;2.23;;;12.80;51.00;;;;;;5085124;28;20197;-79
2022/03/03 02:25:46;;;;;;;3.40;2.60;;;12.80;51.00;;;;;;5082615;28;20189;-79
2022/03/03 02:28:18;;;;;;;3.07;2.37;;;12.80;51.00;;;;;;5100346;28;20178;-78
2022/03/03 02:30:43;;;;;;;2.60;2.40;;;12.80;51.00;;;;;;5100603;28;20562;-79
2022/03/03 02:33:09;;;;;;;2.57;2.37;;;12.80;51.00;;;;;;5097446;28;20199;-79
2022/03/03 02:35:35;;;;;;;2.53;2.23;;;12.80;51.00;;;;;;5082209;28;20194;-78
2022/03/03 02:38:01;;;;;;;2.77;2.47;;;12.80;51.00;;;;;;5085374;28;20546;-79
2022/03/03 02:40:27;;;;;;;2.40;2.20;;;12.80;51.00;;;;;;5092553;28;20190;-79
2022/03/03 02:42:55;;;;;;;3.13;2.60;;;12.70;51.00;;;;;;5097333;28;20215;-79
2022/03/03 02:45:21;;;;;;;2.83;2.10;;;12.80;51.10;;;;;;5080878;28;20185;-79
2022/03/03 02:47:52;;;;;;;2.40;2.17;;;12.80;51.10;;;;;;5099475;28;20608;-78
2022/03/03 02:50:23;;;;;;;2.87;2.57;;;12.70;51.10;;;;;;5083128;28;20290;-79
2022/03/03 02:52:49;;;;;;;2.97;2.47;;;12.70;51.00;;;;;;5085707;28;20201;-79
2022/03/03 02:55:14;;;;;;;2.57;2.37;;;12.70;51.10;;;;;;5087813;28;20468;-78
2022/03/03 02:57:55;;;;;;;2.97;2.60;;;12.70;51.10;;;;;;5091454;28;20190;-79
2022/03/03 03:00:38;;;;;;;2.87;2.47;;;12.70;51.10;;;;;;5091143;28;20197;-78
2022/03/03 03:03:04;;;;;;;2.70;2.50;;;12.70;51.10;;;;;;5099023;28;20209;-79
2022/03/03 03:05:30;;;;;;;2.40;2.20;;;12.70;51.10;;;;;;5096308;28;20207;-79
2022/03/03 03:07:56;;;;;;;2.53;2.33;;;12.70;51.00;;;;;;5099129;28;20179;-79
2022/03/03 03:10:23;;;;;;;2.97;2.67;;;12.70;51.10;;;;;;5096579;28;20212;-79
2022/03/03 03:13:00;;;;;;;2.70;2.40;;;12.70;51.10;;;;;;5099345;28;20199;-79
2022/03/03 03:15:26;;;;;;;2.60;2.40;;;12.70;51.10;;;;;;5087725;28;20448;-79
2022/03/03 03:17:52;;;;;;;2.50;2.30;;;12.70;51.10;;;;;;5078565;28;20239;-79
2022/03/03 03:20:18;;;;;;;3.57;2.40;;;12.70;51.10;;;;;;5077809;28;20269;-79
2022/03/03 03:22:49;;;;;;;3.30;2.53;;;12.70;51.10;;;;;;5078239;28;20573;-79
2022/03/03 03:25:15;;;;;;;2.63;2.40;;;12.60;51.00;;;;;;5078681;28;20511;-79
2022/03/03 03:27:43;;;;;;;2.73;2.53;;;12.60;51.10;;;;;;5085558;28;20580;-79
2022/03/03 03:30:10;;;;;;;2.73;2.43;;;12.60;51.10;;;;;;5088692;28;20186;-79
2022/03/03 03:32:36;;;;;;;2.40;2.13;;;12.60;51.10;;;;;;5099007;28;20683;-79
2022/03/03 03:35:04;;;;;;;3.20;2.50;;;12.60;51.10;;;;;;5097361;28;20290;-79
2022/03/03 03:37:30;;;;;;;2.77;2.37;;;12.60;51.10;;;;;;5099443;28;20558;-79
2022/03/03 03:39:57;;;;;;;2.60;2.40;;;12.60;51.10;;;;;;5098153;28;20188;-79
2022/03/03 03:42:23;;;;;;;2.37;2.17;;;12.60;51.10;;;;;;5094332;28;20209;-79
2022/03/03 03:44:49;;;;;;;2.73;2.40;;;12.60;51.10;;;;;;5083443;28;20185;-79
2022/03/03 03:47:15;;;;;;;3.13;2.60;;;12.50;51.10;;;;;;5084696;28;20529;-79
2022/03/03 03:49:40;;;;;;;2.70;2.23;;;12.50;51.10;;;;;;5077872;28;20213;-79
2022/03/03 03:52:06;;;;;;;2.70;2.43;;;12.50;51.10;;;;;;5084208;28;20185;-79
2022/03/03 03:54:32;;;;;;;2.93;2.37;;;12.50;51.10;;;;;;5098678;28;20281;-79
2022/03/03 03:57:04;;;;;;;3.43;2.50;;;12.50;51.10;;;;;;5078000;28;20189;-79
2022/03/03 03:59:30;;;;;;;2.80;2.37;;;12.50;51.10;;;;;;5082728;28;20190;-79
2022/03/03 04:01:56;;;;;;;2.83;2.37;;;12.50;51.10;;;;;;5097529;28;20555;-79
2022/03/03 04:04:22;;;;;;;3.37;2.60;;;12.50;51.10;;;;;;5097024;28;20172;-78
2022/03/03 04:06:48;;;;;;;2.87;2.57;;;12.50;51.10;;;;;;5098207;28;20227;-78
2022/03/03 04:09:14;;;;;;;2.90;2.50;;;12.50;51.10;;;;;;5091767;28;20246;-79
2022/03/03 04:11:40;;;;;;;2.73;2.33;;;12.50;51.10;;;;;;5099192;28;20185;-79
2022/03/03 04:14:05;;;;;;;2.67;2.20;;;12.50;51.10;;;;;;5082186;28;20180;-79
2022/03/03 04:16:32;;;;;;;3.10;2.80;;;12.50;51.10;;;;;;5094351;28;20208;-79
2022/03/03 04:18:58;;;;;;;2.30;2.10;;;12.40;51.10;;;;;;5105246;28;20232;-79
2022/03/03 04:21:24;;;;;;;2.83;2.53;;;12.40;51.10;;;;;;5105595;28;20287;-79
2022/03/03 04:23:50;;;;;;;2.73;2.50;;;12.40;51.00;;;;;;5086825;28;20172;-79
2022/03/03 04:26:16;;;;;;;2.87;2.37;;;12.40;51.00;;;;;;5096277;28;20567;-79
2022/03/03 04:28:42;;;;;;;3.10;2.60;;;12.40;51.00;;;;;;5102207;28;20161;-80
2022/03/03 04:31:07;;;;;;;3.00;2.70;;;12.40;51.10;;;;;;5094509;28;20178;-79
2022/03/03 04:33:33;;;;;;;2.57;2.37;;;12.40;51.00;;;;;;5087242;28;20293;-79
2022/03/03 04:36:08;;;;;;;2.53;2.00;;;12.40;51.10;;;;;;5103822;28;20184;-79
2022/03/03 04:38:34;;;;;;;2.77;2.47;;;12.40;51.10;;;;;;5103806;28;20177;-79
2022/03/03 04:41:00;;;;;;;2.90;2.27;;;12.40;51.10;;;;;;5105089;28;20173;-79
2022/03/03 04:43:25;;;;;;;2.93;2.60;;;12.30;51.10;;;;;;5100187;28;20176;-79
2022/03/03 04:45:51;;;;;;;4.30;2.63;;;12.30;51.10;;;;;;5084019;28;20606;-79
2022/03/03 04:48:17;;;;;;;2.90;2.33;;;12.30;51.10;;;;;;5089925;28;20174;-79
2022/03/03 04:50:43;;;;;;;3.73;2.30;;;12.30;51.10;;;;;;5082139;28;20189;-79
2022/03/03 04:53:08;;;;;;;3.27;2.33;;;12.30;51.10;;;;;;5086088;28;20188;-79
2022/03/03 04:55:35;;;;;;;3.17;2.60;;;12.30;51.10;;;;;;5103515;28;20185;-78
2022/03/03 04:58:02;;;;;;;2.87;2.37;;;12.30;51.10;;;;;;5090392;28;20241;-78
2022/03/03 05:00:27;;;;;;;3.27;2.63;;;12.30;51.20;;;;;;5097135;28;20186;-79
2022/03/03 05:02:53;;;;;;;3.00;2.47;;;12.30;51.20;;;;;;5103133;28;20204;-79
2022/03/03 05:05:25;;;;;;;2.67;2.40;;;12.30;51.20;;;;;;5101524;28;20197;-79
2022/03/03 05:07:51;;;;;;;2.90;2.60;;;12.20;51.20;;;;;;5090551;28;20265;-79
2022/03/03 05:10:17;;;;;;;2.87;2.33;;;12.30;51.20;;;;;;5083063;28;20724;-79
2022/03/03 05:12:42;;;;;;;2.80;2.50;;;12.20;51.10;;;;;;5084000;28;20188;-79
2022/03/03 05:15:08;;;;;;;2.87;2.50;;;12.20;51.20;;;;;;5094520;28;20211;-78
2022/03/03 05:17:34;;;;;;;4.00;2.43;;;12.20;51.20;;;;;;5092476;28;20195;-79
2022/03/03 05:20:00;;;;;;;3.23;2.60;;;12.20;51.20;;;;;;5088041;28;20195;-79
2022/03/03 05:22:25;;;;;;;2.50;2.30;;;12.20;51.20;;;;;;5084710;28;20199;-79
2022/03/03 05:24:56;;;;;;;3.53;2.60;;;12.20;51.20;;;;;;5102506;28;20180;-79
2022/03/03 05:27:22;;;;;;;4.43;2.63;;;12.20;51.20;;;;;;5100115;28;20650;-79
2022/03/03 05:29:48;;;;;;;3.10;2.50;;;12.20;51.20;;;;;;5098060;28;20577;-78
2022/03/03 05:32:13;;;;;;;3.07;2.70;;;12.20;51.30;;;;;;5094207;28;20436;-79
2022/03/03 05:34:39;;;;;;;2.90;2.60;;;12.10;51.20;;;;;;5091165;28;20204;-78
2022/03/03 05:37:09;;;;;;;3.13;2.40;;;12.10;51.20;;;;;;5088146;28;20183;-78
2022/03/03 05:39:35;;;;;;;3.93;2.30;;;12.10;51.40;;;;;;5085819;28;20190;-78
2022/03/03 05:42:12;;;;;;;2.90;2.60;;;12.20;51.50;;;;;;5079518;28;20201;-79
2022/03/03 05:44:37;;;;;;;2.83;2.47;;;12.20;51.70;;;;;;5094103;28;20569;-79
2022/03/03 05:47:03;;;;;;;3.00;2.50;;;12.20;52.00;;;;;;5086533;28;20179;-79
2022/03/03 05:49:30;;;;;;;3.60;2.10;;;12.20;52.10;;;;;;5099981;28;20199;-79
2022/03/03 05:51:56;;;;;;;2.57;2.37;;;12.20;52.30;;;;;;5086912;28;20260;-79
2022/03/03 05:54:22;;;;;;;3.10;2.60;;;12.20;52.50;;;;;;5094247;28;20466;-79
2022/03/03 05:56:51;;;;;;;3.33;2.60;;;12.20;52.70;;;;;;5098418;28;20182;-79
2022/03/03 05:59:21;;;;;;;3.43;2.90;;;12.20;52.70;;;;;;5098777;28;20202;-79
2022/03/03 06:01:47;;;;;;;3.13;2.50;;;12.20;52.90;;;;;;5078925;28;20198;-79
2022/03/03 06:04:15;;;;;;;4.30;3.10;;;12.20;53.00;;;;;;5091391;28;20182;-79
2022/03/03 06:06:51;;;;;;;4.63;2.93;;;12.20;53.10;;;;;;5091364;28;20181;-79
2022/03/03 06:09:30;;;;;;;4.17;3.00;;;12.20;53.10;;;;;;5098140;28;20171;-79
2022/03/03 06:12:12;;;;;;;3.83;3.07;;;12.20;53.30;;;;;;5093247;28;20264;-79
2022/03/03 06:14:40;;;;;;;3.23;2.90;;;12.20;53.30;;;;;;5098707;28;20190;-79
2022/03/03 06:17:09;;;;;;;4.83;3.60;;;12.20;53.30;;;;;;5087065;28;20186;-78
2022/03/03 06:19:40;;;;;;;4.20;3.10;;;12.20;53.30;;;;;;5090779;28;20181;-80
2022/03/03 06:22:11;;;;;;;4.07;3.20;;;12.20;53.20;;;;;;5108766;28;20219;-79
2022/03/03 06:24:37;;;;;;;4.53;3.20;;;12.20;53.20;;;;;;5106536;28;20178;-79
2022/03/03 06:27:03;;;;;;;4.23;3.27;;;12.20;53.30;;;;;;5098107;28;20179;-79
2022/03/03 06:29:30;;;;;;;3.50;3.07;;;12.20;53.20;;;;;;5085301;28;20272;-79
2022/03/03 06:31:59;;;;;;;6.33;3.57;;;12.20;53.20;;;;;;5084056;28;20219;-79
2022/03/03 06:34:24;;;;;;;4.37;3.47;;;12.20;53.30;;;;;;5096691;28;20186;-79
2022/03/03 06:36:51;;;;;;;6.63;3.50;;;12.20;53.30;;;;;;5086855;28;20879;-79
2022/03/03 06:39:17;;;;;;;4.50;3.60;;;12.20;53.40;;;;;;5090215;28;20799;-79
2022/03/03 06:41:44;;;;;;;4.70;3.60;;;12.30;53.40;;;;;;5090051;28;20693;-79
2022/03/03 06:44:10;;;;;;;4.97;3.63;;;12.30;53.40;;;;;;5091591;28;20179;-79
2022/03/03 06:46:36;;;;;;;7.40;3.70;;;12.30;53.40;;;;;;5089955;28;20167;-79
2022/03/03 06:49:05;;;;;;;5.87;3.83;;;12.20;53.30;;;;;;5089977;28;20184;-79
2022/03/03 06:51:42;;;;;;;8.80;3.87;;;12.30;53.40;;;;;;5080071;28;20193;-79
2022/03/03 06:54:11;;;;;;;5.50;4.17;;;12.30;53.30;;;;;;5095587;28;20451;-79
2022/03/03 06:56:46;;;;;;;5.80;4.07;;;12.30;53.20;;;;;;5097878;28;20203;-78
2022/03/03 06:59:18;;;;;;;7.43;4.17;;;12.40;53.10;;;;;;5097498;28;20171;-79
2022/03/03 07:01:44;;;;;;;7.50;4.27;;;12.60;53.00;;;;;;5082891;28;20664;-80
2022/03/03 07:04:13;;;;;;;5.30;4.10;;;12.70;52.70;;;;;;5090912;28;20187;-79
2022/03/03 07:06:39;;;;;;;6.70;4.67;;;12.80;52.50;;;;;;5088565;28;20181;-79
2022/03/03 07:09:05;;;;;;;6.50;4.53;;;12.80;52.20;;;;;;5089584;28;20184;-79
2022/03/03 07:11:43;;;;;;;6.23;4.83;;;13.00;52.10;;;;;;5082930;28;20232;-79
2022/03/03 07:14:09;;;;;;;7.47;5.10;;;13.10;51.80;;;;;;5082716;28;20464;-79
2022/03/03 07:16:45;;;;;;;6.50;4.40;;;13.10;51.80;;;;;;5089253;28;20240;-79
2022/03/03 07:19:14;;;;;;;8.30;4.80;;;13.30;51.40;;;;;;5096249;28;20185;-79
2022/03/03 07:21:52;;;;;;;7.27;5.40;;;13.40;51.30;;;;;;5086193;28;20225;-79
2022/03/03 07:24:48;;;;;;;8.93;5.10;;;13.50;51.10;;;;;;5083389;28;20476;-79
2022/03/03 07:27:23;;;;;;;8.20;5.10;;;13.60;50.70;;;;;;5084166;28;20181;-78
2022/03/03 07:30:05;;;;;;;5.90;4.70;;;13.60;50.60;;;;;;5079612;28;20174;-79
2022/03/03 07:32:33;;;;;;;6.30;4.73;;;13.70;50.40;;;;;;5087152;28;20179;-79
2022/03/03 07:35:03;;;;;;;6.37;4.90;;;13.80;50.20;;;;;;5078741;28;20461;-79
2022/03/03 07:37:36;;;;;;;9.93;5.30;;;13.90;49.90;;;;;;5093610;28;20174;-79
2022/03/03 07:40:07;;;;;;;7.37;5.77;;;14.00;49.80;;;;;;5083448;28;20274;-79
2022/03/03 07:42:33;;;;;;;7.23;5.10;;;14.10;49.50;;;;;;5080699;28;20199;-79
2022/03/03 07:44:59;;;;;;;6.90;5.37;;;14.20;49.30;;;;;;5095596;28;20443;-79
2022/03/03 07:47:27;;;;;;;6.53;4.80;;;14.30;49.10;;;;;;5087122;28;20222;-79
2022/03/03 07:49:59;;;;;;;7.93;4.73;;;14.40;48.90;;;;;;5073557;28;20163;-79
2022/03/03 07:52:28;;;;;;;9.10;5.43;;;14.50;48.80;;;;;;5087322;28;20183;-79
2022/03/03 07:54:57;;;;;;;7.27;5.30;;;14.60;48.70;;;;;;5094193;28;20217;-79
2022/03/03 07:57:39;;;;;;;8.03;5.80;;;14.70;48.50;;;;;;5093493;28;20183;-80
2022/03/03 08:00:07;;;;;;;9.03;5.67;;;14.80;48.30;;;;;;5094412;28;20183;-79
2022/03/03 08:02:46;;;;;;;7.50;5.63;;;14.90;48.30;;;;;;5095161;28;20209;-79
2022/03/03 08:05:12;;;;;;;8.07;5.50;;;15.00;48.10;;;;;;5089808;28;20187;-79
2022/03/03 08:07:48;;;;;;;6.97;5.50;;;15.00;48.00;;;;;;5078163;28;20175;-79
2022/03/03 08:10:15;;;;;;;6.63;5.27;;;15.10;47.80;;;;;;5093557;28;20171;-79
2022/03/03 08:12:42;;;;;;;6.80;4.70;;;15.20;47.80;;;;;;5091168;28;20337;-79
2022/03/03 08:15:10;;;;;;;7.03;5.10;;;15.30;47.70;;;;;;5085661;28;20179;-79
2022/03/03 08:17:37;;;;;;;6.57;5.10;;;15.40;47.70;;;;;;5095262;28;20244;-79
2022/03/03 08:20:08;;;;;;;5.97;4.83;;;15.40;47.60;;;;;;5096417;28;20591;-79
2022/03/03 08:22:34;;;;;;;6.40;5.13;;;15.50;47.40;;;;;;5081550;28;20224;-78
2022/03/03 08:24:59;;;;;;;7.27;5.30;;;15.50;47.30;;;;;;5077004;28;20195;-78
2022/03/03 08:27:33;;;;;;;5.20;4.70;;;15.60;47.30;;;;;;5079682;28;20170;-79
2022/03/03 08:30:00;;;;;;;6.70;5.03;;;15.60;47.20;;;;;;5076419;28;20182;-79
2022/03/03 08:32:34;;;;;;;5.97;4.90;;;15.70;47.10;;;;;;5075177;28;20277;-79
2022/03/03 08:35:19;;;;;;;7.67;5.10;;;15.80;47.00;;;;;;5074758;28;20199;-79
2022/03/03 08:38:10;;;;;;;6.33;5.20;;;15.80;47.20;;;;;;5074503;28;20178;-79
2022/03/03 08:40:36;;;;;;;5.80;5.10;;;15.90;46.70;;;;;;5087964;28;20206;-79
2022/03/03 08:43:05;;;;;;;6.03;5.07;;;16.00;46.60;;;;;;5094529;28;20225;-79
2022/03/03 08:45:33;;;;;;;5.57;4.63;;;16.10;46.50;;;;;;5094759;28;20308;-79
2022/03/03 08:48:00;;;;;;;5.07;4.57;;;16.10;46.50;;;;;;5095992;28;20270;-79
2022/03/03 08:50:27;;;;;;;6.97;5.17;;;16.20;46.40;;;;;;5095280;28;20638;-79
2022/03/03 08:52:57;;;;;;;5.53;4.83;;;16.20;46.30;;;;;;5094820;28;20678;-80
2022/03/03 08:55:24;;;;;;;6.33;5.40;;;16.30;46.20;;;;;;5077221;28;20194;-79
2022/03/03 08:57:51;;;;;;;5.50;4.57;;;16.40;46.10;;;;;;5093117;28;20218;-79
2022/03/03 09:00:23;;;;;;;7.13;5.13;;;16.40;46.00;;;;;;5081131;28;20175;-78
2022/03/03 09:02:50;;;;;;;6.53;5.10;;;16.40;46.00;;;;;;5091603;28;20261;-79
2022/03/03 09:05:16;;;;;;;5.73;4.93;;;16.50;45.90;;;;;;5092853;28;20568;-79
2022/03/03 09:07:42;;;;;;;6.93;4.67;;;16.60;45.90;;;;;;5085183;28;20175;-79
2022/03/03 09:10:09;;;;;;;6.80;4.90;;;16.60;45.80;;;;;;5080214;28;20179;-79
2022/03/03 09:12:36;;;;;;;6.43;5.10;;;16.70;45.70;;;;;;5085046;28;20186;-79
2022/03/03 09:15:06;;;;;;;5.63;4.67;;;16.70;45.70;;;;;;5085920;28;20232;-79
2022/03/03 09:17:32;;;;;;;5.87;5.00;;;16.80;45.80;;;;;;5081299;28;20187;-79
2022/03/03 09:20:00;;;;;;;6.60;5.10;;;16.80;45.70;;;;;;5094681;28;20183;-79
2022/03/03 09:22:26;;;;;;;6.10;5.13;;;16.90;45.60;;;;;;5084822;28;20256;-79
2022/03/03 09:24:54;;;;;;;6.70;5.17;;;16.90;45.60;;;;;;5086578;28;20203;-79
2022/03/03 09:27:20;;;;;;;9.40;5.50;;;16.90;45.50;;;;;;5098064;28;20328;-79
2022/03/03 09:29:52;;;;;;;6.03;5.17;;;16.80;45.40;;;;;;5084298;28;20274;-79
2022/03/03 09:32:21;;;;;;;7.93;5.70;;;16.60;45.50;;;;;;5099060;28;20186;-79
2022/03/03 09:34:47;;;;;;;6.30;5.50;;;16.20;45.70;;;;;;5092355;28;20198;-78
2022/03/03 09:37:13;;;;;;;6.90;5.73;;;15.90;46.10;;;;;;5086363;28;20199;-79
2022/03/03 09:39:39;;;;;;;5.97;5.33;;;15.60;46.40;;;;;;5091267;28;20187;-79
2022/03/03 09:42:05;;;;;;;7.23;5.57;;;15.40;46.80;;;;;;5098269;28;20622;-79
2022/03/03 09:44:31;;;;;;;7.67;5.40;;;15.20;47.10;;;;;;5100350;28;20174;-79
2022/03/03 09:46:57;;;;;;;6.67;5.30;;;15.10;47.40;;;;;;5090759;28;20189;-79
2022/03/03 09:49:24;;;;;;;7.37;5.63;;;14.90;47.60;;;;;;5098225;28;20181;-79
2022/03/03 09:51:50;;;;;;;7.03;6.13;;;14.90;47.70;;;;;;5098816;28;20187;-79
2022/03/03 09:54:16;;;;;;;7.07;5.30;;;14.80;47.80;;;;;;5085508;28;20247;-79
2022/03/03 09:56:45;;;;;;;5.47;4.97;;;14.80;47.90;;;;;;5080073;28;20230;-79
2022/03/03 09:59:14;;;;;;;6.13;5.47;;;14.80;48.00;;;;;;5077201;28;20175;-79
2022/03/03 10:01:40;;;;;;;6.17;5.57;;;14.70;48.00;;;;;;5083893;28;20219;-79
2022/03/03 10:04:21;;;;;;;6.13;5.50;;;14.70;48.00;;;;;;5075612;28;20187;-78
2022/03/03 10:06:48;;;;;;;8.20;5.50;;;14.70;48.20;;;;;;5083375;28;20602;-78
2022/03/03 10:09:16;;;;;;;6.53;5.40;;;14.80;48.20;;;;;;5095082;28;20185;-78
2022/03/03 10:11:48;;;;;;;6.97;5.57;;;14.70;48.20;;;;;;5095011;28;20179;-79
2022/03/03 10:14:24;;;;;;;6.87;5.47;;;14.70;48.30;;;;;;5088935;28;20255;-79
2022/03/03 10:16:50;;;;;;;8.13;5.73;;;14.70;48.30;;;;;;5095236;28;20186;-79
2022/03/03 10:19:16;;;;;;;8.30;5.87;;;14.70;48.30;;;;;;5077130;28;20278;-80
2022/03/03 10:21:44;;;;;;;6.17;5.03;;;14.70;48.40;;;;;;5083342;28;20312;-79
2022/03/03 10:24:19;;;;;;;8.53;5.20;;;14.70;48.40;;;;;;5089211;28;20232;-79
2022/03/03 10:26:47;;;;;;;6.20;5.60;;;14.70;48.40;;;;;;5088743;28;20185;-79
2022/03/03 10:29:20;;;;;;;9.03;5.60;;;14.70;48.40;;;;;;5075916;28;20179;-80
2022/03/03 10:31:52;;;;;;;7.83;5.20;;;14.60;48.30;;;;;;5091349;28;20186;-80
2022/03/03 10:34:22;;;;;;;7.20;5.70;;;14.60;48.40;;;;;;5096013;28;20206;-80
2022/03/03 10:36:59;;;;;;;6.30;5.70;;;14.60;48.80;;;;;;5096426;28;20234;-79
2022/03/03 10:39:25;;;;;;;7.07;5.40;;;14.60;48.40;;;;;;5096208;28;20217;-80
2022/03/03 10:41:56;;;;;;;6.83;5.50;;;14.60;48.40;;;;;;5100503;28;20227;-80
2022/03/03 10:44:27;;;;;;;9.37;5.83;;;14.60;48.40;;;;;;5095513;28;20171;-79
2022/03/03 10:47:07;;;;;;;6.50;5.10;;;14.60;48.40;;;;;;5091970;28;20214;-79
2022/03/03 10:49:35;;;;;;;7.53;5.37;;;14.60;48.40;;;;;;5083779;28;20172;-79
2022/03/03 10:52:14;;;;;;;7.63;5.77;;;14.60;48.30;;;;;;5075826;28;20289;-79
2022/03/03 10:54:55;;;;;;;6.83;5.23;;;14.60;48.30;;;;;;5074684;28;20257;-79
2022/03/03 10:57:34;;;;;;;6.53;4.73;;;14.50;48.30;;;;;;5075582;28;20206;-80
2022/03/03 11:00:04;;;;;;;7.47;4.70;;;14.50;48.30;;;;;;5082216;28;20178;-79
2022/03/03 11:02:50;;;;;;;5.60;4.70;;;14.60;48.40;;;;;;5093925;28;20495;-80
2022/03/03 11:05:21;;;;;;;7.17;4.93;;;14.60;48.40;;;;;;5094851;28;20751;-80
2022/03/03 11:07:48;;;;;;;6.47;5.20;;;14.60;48.40;;;;;;5094962;28;20178;-81
2022/03/03 11:10:38;;;;;;;6.73;5.27;;;14.60;48.40;;;;;;5094107;28;20765;-79
2022/03/03 11:13:05;;;;;;;5.83;4.60;;;14.60;48.40;;;;;;5093919;28;20200;-79
2022/03/03 11:15:42;;;;;;;;;;;;;;;;;;;;;
2022/03/03 11:18:20;;;;;;;6.20;4.40;;;14.60;48.40;;;;;;5095985;28;20185;-79
2022/03/03 11:20:46;;;;;;;6.37;5.07;;;14.60;48.50;;;;;;5093031;28;20181;-78
2022/03/03 11:23:12;;;;;;;6.17;4.93;;;14.50;48.30;;;;;;5094029;28;20298;-79
2022/03/03 11:25:51;;;;;;;6.03;4.70;;;14.50;48.40;;;;;;5094865;28;20273;-79
2022/03/03 11:28:20;;;;;;;5.83;4.63;;;14.50;48.40;;;;;;5094872;28;20704;-79
2022/03/03 11:31:01;;;;;;;5.87;4.77;;;14.50;48.50;;;;;;5095408;28;20236;-79
2022/03/03 11:33:30;;;;;;;5.90;4.67;;;14.50;48.30;;;;;;5094467;28;20683;-79
2022/03/03 11:36:20;;;;;;;5.93;4.67;;;14.50;48.30;;;;;;5093765;28;20276;-79
2022/03/03 11:38:54;;;;;;;5.17;4.07;;;14.50;48.40;;;;;;5095226;28;20188;-78
2022/03/03 11:41:23;;;;;;;6.23;4.40;;;14.50;48.50;;;;;;5094444;28;20477;-79
2022/03/03 11:44:04;;;;;;;5.90;4.20;;;14.50;48.50;;;;;;5094618;28;20171;-79
2022/03/03 11:46:57;;;;;;;6.10;4.80;;;14.40;48.30;;;;;;5094226;28;20175;-79
2022/03/03 11:49:31;;;;;;;6.50;4.60;;;14.40;48.30;;;;;;5089960;28;20580;-79
2022/03/03 11:52:50;;;;;;;5.80;4.30;;;14.40;48.30;;;;;;5092819;28;20214;-80
2022/03/03 11:56:15;;;;;;;5.80;4.73;;;14.40;48.30;;;;;;4996084;28;20187;-78
2022/03/03 11:59:48;;;;;;;5.60;4.23;;;14.40;48.40;;;;;;4971030;28;20290;-79
2022/03/03 12:02:47;;;;;;;6.20;4.60;;;14.40;48.40;;;;;;5050453;28;20214;-79
2022/03/03 12:05:27;;;;;;;6.33;4.60;;;14.40;48.30;;;;;;5037985;28;20182;-79
2022/03/03 12:08:01;;;;;;;5.70;4.67;;;14.30;48.30;;;;;;5078652;28;20192;-80
2022/03/03 12:10:28;;;;;;;5.50;4.70;;;14.30;48.20;;;;;;5074565;28;20545;-80
2022/03/03 12:13:29;;;;;;;5.13;4.43;;;14.30;48.20;;;;;;5091687;28;20185;-80
2022/03/03 12:16:24;;;;;;;6.40;5.07;;;14.30;48.30;;;;;;5076852;28;20690;-79
2022/03/03 12:19:08;;;;;;;6.77;4.50;;;14.30;48.20;;;;;;5075715;28;20174;-79
2022/03/03 12:21:37;;;;;;;5.70;4.93;;;14.30;48.30;;;;;;5076165;28;20186;-79
2022/03/03 12:24:17;;;;;;;5.30;4.80;;;14.30;48.20;;;;;;5075978;28;20184;-79
2022/03/03 12:26:55;;;;;;;5.73;4.60;;;14.30;48.20;;;;;;5075659;28;20190;-79
2022/03/03 12:29:39;;;;;;;6.07;4.30;;;14.20;48.20;;;;;;5074726;28;20186;-79
2022/03/03 12:32:39;;;;;;;5.63;4.40;;;14.20;48.20;;;;;;5091205;28;20942;-79
2022/03/03 12:35:30;;;;;;;5.73;4.60;;;14.20;48.20;;;;;;5045800;28;20195;-79
2022/03/03 12:38:00;;;;;;;5.17;4.40;;;14.20;48.20;;;;;;5076720;28;20192;-79
2022/03/03 12:40:29;;;;;;;5.83;4.67;;;14.20;48.30;;;;;;5076561;28;20671;-79
2022/03/03 12:42:55;;;;;;;5.17;4.13;;;14.20;48.30;;;;;;5076940;28;20634;-79
2022/03/03 12:45:22;;;;;;;5.77;4.83;;;14.20;48.30;;;;;;5076915;28;20197;-78
2022/03/03 12:47:53;;;;;;;5.33;4.40;;;14.20;48.30;;;;;;5076260;28;20603;-79
2022/03/03 12:50:29;;;;;;;5.47;4.60;;;14.20;48.70;;;;;;5077044;28;20181;-78
2022/03/03 12:53:07;;;;;;;6.63;4.20;;;14.20;48.20;;;;;;5076969;28;20561;-79
2022/03/03 12:55:43;;;;;;;5.03;4.00;;;14.20;48.40;;;;;;5077583;28;20566;-79
2022/03/03 12:58:14;;;;;;;6.60;4.30;;;14.20;48.40;;;;;;5076942;28;20179;-79
2022/03/03 13:00:42;;;;;;;5.87;4.43;;;14.20;48.40;;;;;;5089587;28;20188;-79
2022/03/03 13:03:10;;;;;;;5.77;4.00;;;14.20;48.40;;;;;;5094429;28;20243;-79